Airfield :
LOGIN :

Register | Disclaimer

   EN    FR    IT 

 










Legend :    VFR   Marginal VFR   IFR   Intensive IFR   Very Intensive IFR
Visi :
Ceiling :
>= 8 km
>= 3000ft
5 to 8 km
1000 to 3000 ft
1500m to 5 km
500 to 1000 ft
800 to 1500m
200 to 500 ft
< 800m
< 200 ft
Symbols :   Thunderstorms  Fog  Heavy snow  Heavy precipitations  Wind > 20 kt
SIGMETs :     Misc.  Thunderstorms  Icing  Turbulence  Mountain Waves  Volcanic Ashes






- Airport Elevation : 1084 ft
- IATA code : EPL


LFSG - Épinal-Mirecourt

CURRENT METAR :
  • 170700Z AUTO 02006KT 0350 R26/0400N FZFG VV/// M01/M01 Q1008

EXPIRED METARs :
  • 170630Z AUTO VRB03KT 0400 R26/0450N FZFG VV/// M02/M02 Q1008
  • 170600Z AUTO 36003KT 7000 FEW002 OVC210 M02/M03 Q1009
  • 170530Z AUTO 33003KT 8000 NSC M02/M03 Q1009
  • 170500Z AUTO VRB01KT 9000 NSC M02/M03 Q1009
  • 170430Z AUTO 29003KT 7000 NSC M03/M03 Q1009

TAF N/A



MET'MAP, your aeronautical weather chart ! - Copyright ORBIFLY December 2007 - Disclaimer

ORBIFLY MET'MAP TEAM :

Programming & Development : Alexandra Zaïnal
Concept & Development : Baudouin d'Aumeries
Co-Development & Prog : Marc-Olivier Méhu
Technical & hardware support : Manuel Goepfert

Contact : metmap@orbifly.com




SOURCES & CREDITS :

   NOAA